Time;durP1;ratioP1;P1;durP2;ratioP2;P2;SDS_P1;SDS_P2;PMS_P1;PMS_P2;Temp;Humidity;BMP_temperature;BMP_pressure;BME280_temperature;BME280_humidity;BME280_pressure;Samples;Min_cycle;Max_cycle;Signal;HPM_P1;HPM_P2
2021/08/19 00:01:52;;;;;;;19.62;13.68;;;;;;;19.73;76.24;100074.97;1736155;82;20996;-71
2021/08/19 00:04:19;;;;;;;19.25;13.80;;;;;;;19.74;76.25;100077.44;1715315;82;20940;-71
2021/08/19 00:06:46;;;;;;;18.95;14.23;;;;;;;19.74;76.31;100077.95;1736384;82;20956;-72
2021/08/19 00:09:13;;;;;;;15.58;13.13;;;;;;;19.75;76.30;100079.12;1736249;82;21154;-72
2021/08/19 00:11:40;;;;;;;17.85;12.60;;;;;;;19.75;76.40;100080.45;1736045;82;20924;-73
2021/08/19 00:14:08;;;;;;;18.10;13.55;;;;;;;19.76;76.45;100083.44;1736387;82;21419;-72
2021/08/19 00:16:35;;;;;;;14.93;13.30;;;;;;;19.76;76.33;100082.10;1736162;82;20873;-71
2021/08/19 00:19:04;;;;;;;17.80;13.18;;;;;;;19.76;76.33;100077.28;1736204;82;21422;-70
2021/08/19 00:21:32;;;;;;;16.87;13.50;;;;;;;19.77;76.25;100084.28;1735900;82;20878;-71
2021/08/19 00:24:01;;;;;;;15.48;12.07;;;;;;;19.77;76.17;100084.28;1736253;82;20971;-70
2021/08/19 00:26:28;;;;;;;19.17;13.25;;;;;;;19.77;76.04;100079.80;1736178;82;20909;-71
2021/08/19 00:28:56;;;;;;;19.85;13.60;;;;;;;19.77;75.97;100084.28;1736126;81;20897;-70
2021/08/19 00:31:23;;;;;;;15.48;13.98;;;;;;;19.77;75.88;100078.46;1736085;82;21477;-70
2021/08/19 00:33:51;;;;;;;18.00;13.20;;;;;;;19.77;75.82;100078.46;1736102;81;21994;-71
2021/08/19 00:36:19;;;;;;;18.75;12.68;;;;;;;19.78;75.79;100084.61;1736559;82;20925;-70
2021/08/19 00:38:47;;;;;;;18.30;13.35;;;;;;;19.78;75.69;100082.77;1736210;81;20893;-70
2021/08/19 00:41:16;;;;;;;14.80;12.45;;;;;;;19.77;75.64;100081.13;1736148;82;21474;-71
2021/08/19 00:43:43;;;;;;;17.10;12.55;;;;;;;19.77;75.73;100074.47;1736183;82;20949;-71
2021/08/19 00:46:34;;;;;;;15.60;13.95;;;;;;;19.79;75.69;100070.32;1736172;82;21564;-70
2021/08/19 00:49:11;;;;;;;15.18;12.95;;;;;;;19.79;75.69;100075.14;1736107;82;20841;-69
2021/08/19 00:51:53;;;;;;;18.87;13.68;;;;;;;19.79;75.78;100072.98;1746714;81;21366;-71
2021/08/19 00:54:23;;;;;;;18.50;12.37;;;;;;;19.79;75.73;100077.80;1750064;82;20884;-72
2021/08/19 00:56:54;;;;;;;18.12;13.30;;;;;;;19.77;75.74;100073.64;1750337;82;20904;-72
2021/08/19 00:59:23;;;;;;;18.27;14.78;;;;;;;19.76;75.85;100067.47;1750123;82;21143;-70
2021/08/19 01:01:57;;;;;;;16.75;14.95;;;;;;;19.74;75.95;100072.13;1750041;80;20877;-71
2021/08/19 01:04:28;;;;;;;14.90;13.13;;;;;;;19.74;76.05;100072.62;1750220;82;20932;-70
2021/08/19 01:06:55;;;;;;;15.90;13.83;;;;;;;19.72;76.15;100067.49;1750348;80;20881;-71
2021/08/19 01:09:24;;;;;;;19.23;13.53;;;;;;;19.72;76.14;100068.82;1750101;82;21487;-70
2021/08/19 01:11:51;;;;;;;18.55;15.03;;;;;;;19.70;76.18;100062.83;1750515;80;21185;-71
2021/08/19 01:14:17;;;;;;;19.32;14.45;;;;;;;19.69;76.25;100067.80;1750159;82;20834;-71
2021/08/19 01:16:47;;;;;;;20.32;15.25;;;;;;;19.69;76.31;100066.47;1750507;82;20972;-72
2021/08/19 01:19:20;;;;;;;15.98;13.83;;;;;;;19.68;76.36;100065.61;1750161;82;20896;-70
2021/08/19 01:21:49;;;;;;;18.48;16.02;;;;;;;19.67;76.53;100069.77;1750282;80;20845;-70
2021/08/19 01:24:18;;;;;;;17.12;14.78;;;;;;;19.65;76.61;100068.62;1750198;82;20833;-70
2021/08/19 01:26:47;;;;;;;16.80;14.83;;;;;;;19.65;76.71;100073.08;1750085;82;20928;-71
2021/08/19 01:29:16;;;;;;;17.85;15.40;;;;;;;19.63;76.72;100068.42;1750165;82;20935;-70
2021/08/19 01:32:03;;;;;;;20.82;14.30;;;;;;;19.63;76.81;100070.61;1749979;82;20984;-71
2021/08/19 01:34:30;;;;;;;23.75;15.28;;;;;;;19.62;76.88;100065.44;1750110;80;21422;-70
2021/08/19 01:36:57;;;;;;;18.45;14.63;;;;;;;19.59;76.88;100069.77;1750630;82;21119;-71
2021/08/19 01:39:24;;;;;;;19.37;14.25;;;;;;;19.56;76.92;100064.76;1750338;82;21416;-71
2021/08/19 01:41:51;;;;;;;18.40;14.68;;;;;;;19.52;76.94;100068.73;1750417;82;20889;-70
2021/08/19 01:44:18;;;;;;;18.52;14.83;;;;;;;19.50;76.94;100076.05;1750277;82;20900;-71
2021/08/19 01:46:54;;;;;;;17.82;14.28;;;;;;;19.46;76.90;100077.72;1750147;82;20924;-70
2021/08/19 01:49:20;;;;;;;19.60;15.40;;;;;;;19.43;76.88;100082.05;1750349;82;21157;-71
2021/08/19 01:51:49;;;;;;;18.77;13.78;;;;;;;19.40;76.82;100077.53;1749885;82;20897;-71
2021/08/19 01:54:16;;;;;;;19.62;14.98;;;;;;;19.36;76.82;100074.86;1750317;80;20916;-71
2021/08/19 01:56:43;;;;;;;15.85;14.30;;;;;;;19.33;76.95;100076.53;1750092;82;21003;-70
2021/08/19 01:59:12;;;;;;;17.65;15.55;;;;;;;19.29;77.26;100077.84;1750032;80;20897;-70
2021/08/19 02:01:39;;;;;;;18.02;14.85;;;;;;;19.27;77.67;100081.98;1750143;82;21045;-70
2021/08/19 02:05:29;;;;;;;17.87;15.08;;;;;;;19.30;77.98;100068.86;1883964;75;22483;-71
2021/08/19 02:07:57;;;;;;;19.65;15.80;;;;;;;19.23;78.20;100085.48;1860767;77;20899;-71
2021/08/19 02:10:24;;;;;;;18.32;14.98;;;;;;;19.22;78.36;100084.30;1860726;77;21107;-71
2021/08/19 02:12:51;;;;;;;16.77;15.05;;;;;;;19.22;78.48;100082.47;1861043;77;20934;-71
2021/08/19 02:15:18;;;;;;;16.90;14.60;;;;;;;19.19;78.53;100084.13;1860664;77;20832;-71
2021/08/19 02:17:45;;;;;;;17.10;15.30;;;;;;;19.19;78.69;100081.97;1860733;77;20962;-72
2021/08/19 02:20:12;;;;;;;16.93;14.78;;;;;;;19.17;78.80;100083.45;1860722;76;20950;-71
2021/08/19 02:22:41;;;;;;;22.80;16.27;;;;;;;19.15;78.86;100082.78;1860808;76;20919;-70
2021/08/19 02:25:10;;;;;;;21.15;15.85;;;;;;;19.15;79.08;100087.27;1860543;77;20900;-70
2021/08/19 02:27:36;;;;;;;19.52;16.02;;;;;;;19.14;79.13;100087.77;1860678;77;20891;-71
2021/08/19 02:30:04;;;;;;;18.45;15.32;;;;;;;19.14;78.97;100090.91;1861143;77;21400;-71
2021/08/19 02:32:31;;;;;;;18.70;15.93;;;;;;;19.11;78.94;100089.91;1860964;77;20895;-71
2021/08/19 02:35:00;;;;;;;19.12;16.12;;;;;;;19.09;79.01;100091.39;1860696;77;21057;-71
2021/08/19 02:37:26;;;;;;;17.07;15.35;;;;;;;19.07;79.14;100088.56;1860898;77;20804;-70
2021/08/19 02:39:53;;;;;;;18.30;16.37;;;;;;;19.06;79.24;100087.73;1861043;77;20951;-70
2021/08/19 02:42:20;;;;;;;18.73;15.65;;;;;;;19.03;79.40;100084.91;1860381;77;21397;-70
2021/08/19 02:44:47;;;;;;;19.27;15.13;;;;;;;19.02;79.56;100084.55;1861008;76;21376;-70
2021/08/19 02:47:14;;;;;;;19.85;16.40;;;;;;;18.99;79.65;100083.56;1860975;77;22140;-70
2021/08/19 02:49:40;;;;;;;18.37;15.48;;;;;;;19.00;79.83;100089.70;1860598;77;20867;-70
2021/08/19 02:52:07;;;;;;;18.32;16.42;;;;;;;18.99;79.96;100082.73;1861001;77;21412;-70
2021/08/19 02:54:34;;;;;;;18.10;15.75;;;;;;;18.97;80.21;100080.73;1860716;77;20891;-71
2021/08/19 02:57:01;;;;;;;27.62;17.15;;;;;;;18.97;80.50;100088.20;1861081;76;21730;-71
2021/08/19 02:59:28;;;;;;;22.70;16.75;;;;;;;18.99;80.73;100088.05;1860642;76;21166;-71
2021/08/19 03:01:55;;;;;;;22.95;17.55;;;;;;;18.99;80.86;100092.86;1860684;76;20863;-71
2021/08/19 03:04:22;;;;;;;21.00;17.27;;;;;;;19.01;80.90;100091.37;1859519;76;20958;-71
2021/08/19 03:06:51;;;;;;;22.62;16.37;;;;;;;19.01;80.86;100091.37;1860641;77;20926;-71
2021/08/19 03:09:18;;;;;;;22.32;17.32;;;;;;;19.03;80.87;100091.55;1860729;77;20907;-71
2021/08/19 03:11:46;;;;;;;24.77;19.23;;;;;;;19.05;80.85;100094.88;1860819;77;20860;-70
2021/08/19 03:14:15;;;;;;;21.42;17.90;;;;;;;19.08;80.89;100095.56;1860577;77;20954;-71
2021/08/19 03:16:42;;;;;;;19.98;17.73;;;;;;;19.10;80.88;100100.19;1860103;77;20915;-71
2021/08/19 03:19:11;;;;;;;24.75;18.82;;;;;;;19.11;80.93;100098.70;1859975;77;20878;-71
2021/08/19 03:21:38;;;;;;;26.00;17.45;;;;;;;19.13;80.95;100100.71;1860150;77;20844;-70
2021/08/19 03:24:05;;;;;;;24.87;18.07;;;;;;;19.15;80.91;100110.69;1860004;77;21110;-70
2021/08/19 03:26:33;;;;;;;32.93;17.35;;;;;;;19.16;80.84;100107.02;1859949;77;21341;-71
2021/08/19 03:29:00;;;;;;;27.85;17.12;;;;;;;19.17;80.77;100108.70;1860011;77;21401;-71
2021/08/19 03:31:28;;;;;;;27.48;18.75;;;;;;;19.19;80.76;100103.23;1859992;76;20855;-68
2021/08/19 03:33:57;;;;;;;23.73;18.20;;;;;;;19.21;80.80;100102.08;1860091;77;20918;-75
2021/08/19 03:36:25;;;;;;;26.70;17.57;;;;;;;19.23;80.72;100101.90;1860008;77;20981;-72
2021/08/19 03:38:53;;;;;;;28.95;18.32;;;;;;;19.25;80.71;100102.10;1859876;77;20891;-73
2021/08/19 03:41:21;;;;;;;23.80;17.37;;;;;;;19.28;80.71;100108.91;1860113;77;20931;-73
2021/08/19 03:43:48;;;;;;;27.27;17.92;;;;;;;19.30;80.63;100116.23;1860037;77;20911;-73
2021/08/19 03:46:15;;;;;;;23.27;17.55;;;;;;;19.34;80.56;100118.06;1859989;76;20954;-73
2021/08/19 03:48:42;;;;;;;25.62;17.50;;;;;;;19.36;80.55;100117.41;1859978;77;21547;-73
2021/08/19 03:51:09;;;;;;;23.80;16.17;;;;;;;19.40;80.64;100123.56;1860023;77;21386;-73
2021/08/19 03:53:36;;;;;;;24.20;17.23;;;;;;;19.44;80.70;100124.09;1860037;77;20844;-74
2021/08/19 03:56:05;;;;;;;19.80;15.93;;;;;;;19.49;80.77;100131.58;1860033;77;20954;-75
2021/08/19 03:58:33;;;;;;;18.70;16.20;;;;;;;19.52;80.81;100134.76;1860118;77;20864;-74
2021/08/19 04:01:01;;;;;;;18.73;16.85;;;;;;;19.58;80.76;100123.95;1859944;77;21938;-74
2021/08/19 04:03:29;;;;;;;18.25;16.27;;;;;;;19.64;80.69;100130.78;1859888;77;20891;-74
2021/08/19 04:05:56;;;;;;;18.77;16.87;;;;;;;19.72;80.57;100131.82;1849934;77;20881;-75
2021/08/19 04:08:23;;;;;;;18.07;16.17;;;;;;;19.78;80.49;100138.65;1849480;76;20866;-75
2021/08/19 04:10:50;;;;;;;27.13;16.80;;;;;;;19.88;80.38;100135.86;1849301;77;21395;-74
2021/08/19 04:13:17;;;;;;;19.90;16.73;;;;;;;19.98;80.14;100135.18;1849251;77;21114;-74
2021/08/19 04:15:45;;;;;;;19.37;15.95;;;;;;;20.08;79.86;100133.71;1848933;77;21410;-74
2021/08/19 04:18:15;;;;;;;20.37;15.10;;;;;;;20.22;79.61;100140.20;1849260;77;20869;-74
2021/08/19 04:20:44;;;;;;;18.10;15.35;;;;;;;20.37;79.22;100133.71;1848902;77;20830;-74
2021/08/19 04:23:11;;;;;;;18.65;15.48;;;;;;;20.50;78.77;100132.19;1849571;77;21422;-75
2021/08/19 04:25:39;;;;;;;15.88;14.25;;;;;;;20.66;78.37;100133.20;1849145;77;21481;-74
2021/08/19 04:28:06;;;;;;;15.00;13.32;;;;;;;20.83;77.84;100133.50;1849511;76;20945;-74
2021/08/19 04:30:32;;;;;;;20.17;15.05;;;;;;;20.97;77.35;100137.28;1849281;77;20909;-75
2021/08/19 04:32:59;;;;;;;15.65;13.50;;;;;;;21.11;77.02;100132.55;1849544;77;20877;-75
2021/08/19 04:35:30;;;;;;;20.23;14.73;;;;;;;21.25;76.48;100132.83;1823290;77;20901;-75
2021/08/19 04:37:55;;;;;;;18.70;14.58;;;;;;;21.37;76.08;100130.12;1849015;77;22187;-75
2021/08/19 04:40:22;;;;;;;14.70;13.05;;;;;;;21.51;75.78;100130.73;1849052;77;21501;-74
2021/08/19 04:42:49;;;;;;;16.93;13.60;;;;;;;21.65;75.35;100137.66;1849188;77;20877;-73
2021/08/19 04:45:17;;;;;;;15.38;12.37;;;;;;;21.79;74.77;100140.92;1849150;76;20913;-73
2021/08/19 04:47:44;;;;;;;14.68;13.22;;;;;;;21.93;74.24;100141.99;1849459;77;20964;-73
2021/08/19 04:50:12;;;;;;;15.95;13.70;;;;;;;22.09;73.77;100144.53;1849555;76;21087;-74
2021/08/19 04:52:39;;;;;;;17.32;15.32;;;;;;;22.24;73.35;100144.62;1849522;77;20858;-73
2021/08/19 04:55:08;;;;;;;17.57;13.83;;;;;;;22.42;72.91;100142.13;1849260;77;21044;-73
2021/08/19 04:57:35;;;;;;;14.85;12.75;;;;;;;22.61;72.18;100138.09;1849465;77;20960;-74
2021/08/19 05:00:02;;;;;;;14.63;12.78;;;;;;;22.82;71.24;100134.72;1849542;77;21019;-73
2021/08/19 05:02:31;;;;;;;19.60;13.40;;;;;;;23.08;70.32;100136.45;1849315;76;20944;-73
2021/08/19 05:04:59;;;;;;;14.40;12.75;;;;;;;23.43;69.42;100131.31;1843311;75;20831;-74
2021/08/19 05:07:26;;;;;;;14.38;12.88;;;;;;;23.85;68.13;100135.09;1834709;76;21018;-73
2021/08/19 05:09:53;;;;;;;14.68;12.73;;;;;;;24.28;66.85;100136.44;1834972;77;20915;-74
2021/08/19 05:12:22;;;;;;;14.45;12.63;;;;;;;24.73;65.54;100136.99;1834863;77;20953;-73
2021/08/19 05:14:49;;;;;;;13.95;12.53;;;;;;;25.13;64.20;100135.05;1834772;76;21561;-74
2021/08/19 05:17:16;;;;;;;14.70;11.30;;;;;;;25.46;62.77;100127.66;1834606;77;21427;-76
2021/08/19 05:19:43;;;;;;;13.08;11.78;;;;;;;25.72;61.74;100132.28;1834754;76;20903;-74
2021/08/19 05:22:10;;;;;;;13.93;12.53;;;;;;;25.86;61.12;100124.58;1834843;77;20914;-74
2021/08/19 05:24:37;;;;;;;14.30;12.35;;;;;;;25.93;60.91;100131.33;1835821;77;20891;-72
2021/08/19 05:27:05;;;;;;;14.30;12.58;;;;;;;25.98;60.33;100134.22;1836914;77;21982;-75
2021/08/19 05:29:32;;;;;;;13.72;12.20;;;;;;;25.97;60.03;100140.12;1834986;77;20871;-73
2021/08/19 05:31:59;;;;;;;13.43;12.07;;;;;;;25.95;59.81;100130.09;1834994;77;20898;-74
2021/08/19 05:34:26;;;;;;;13.93;12.55;;;;;;;25.94;60.02;100133.79;1834713;78;21514;-73
2021/08/19 05:36:53;;;;;;;13.50;12.25;;;;;;;25.98;60.23;100133.70;1835189;77;20871;-72
2021/08/19 05:39:20;;;;;;;16.32;12.73;;;;;;;26.00;60.07;100125.44;1834836;76;20860;-73
2021/08/19 05:41:47;;;;;;;13.83;12.35;;;;;;;25.99;59.79;100122.42;1834898;77;20815;-74
2021/08/19 05:44:14;;;;;;;13.72;12.30;;;;;;;26.04;59.61;100130.72;1834781;78;21446;-74
2021/08/19 05:46:42;;;;;;;13.55;12.28;;;;;;;26.11;59.58;100128.04;1834706;77;21035;-71
2021/08/19 05:49:09;;;;;;;16.02;13.00;;;;;;;26.22;59.61;100130.93;1834948;77;20883;-70
2021/08/19 05:51:36;;;;;;;13.88;11.90;;;;;;;26.47;59.19;100124.92;1834782;77;21543;-71
2021/08/19 05:54:04;;;;;;;12.90;11.70;;;;;;;26.80;58.46;100124.89;1834787;77;20966;-70
2021/08/19 05:56:31;;;;;;;12.53;11.22;;;;;;;27.26;57.70;100124.48;1834868;77;20973;-71
2021/08/19 05:59:01;;;;;;;13.13;11.45;;;;;;;27.73;56.55;100118.84;1834615;77;20903;-71
2021/08/19 06:01:28;;;;;;;12.15;10.60;;;;;;;28.17;55.36;100117.92;1834646;78;20863;-71
2021/08/19 06:03:55;;;;;;;13.78;12.13;;;;;;;28.61;54.29;100118.77;1834949;77;21458;-70
2021/08/19 06:06:23;;;;;;;12.03;10.78;;;;;;;29.01;53.10;100127.79;1847092;77;20960;-71
2021/08/19 06:08:51;;;;;;;12.68;11.48;;;;;;;29.33;52.33;100123.61;1849217;77;21404;-70
2021/08/19 06:11:20;;;;;;;13.10;11.73;;;;;;;29.68;51.10;100121.55;1823726;77;20920;-71
2021/08/19 06:13:47;;;;;;;12.00;10.88;;;;;;;30.00;50.22;100130.80;1849153;77;20874;-71
2021/08/19 06:16:14;;;;;;;14.38;12.95;;;;;;;30.22;49.29;100129.72;1849228;77;21527;-70
2021/08/19 06:18:43;;;;;;;13.25;11.85;;;;;;;30.40;48.80;100126.11;1849136;77;20921;-70
2021/08/19 06:21:10;;;;;;;13.00;11.75;;;;;;;30.57;48.50;100125.67;1849202;76;21315;-72
2021/08/19 06:23:36;;;;;;;11.88;10.68;;;;;;;30.73;47.55;100122.27;1849158;77;20877;-71
2021/08/19 06:26:06;;;;;;;12.80;11.70;;;;;;;30.57;47.43;100125.67;1849090;77;20976;-71
2021/08/19 06:28:33;;;;;;;13.60;11.73;;;;;;;30.53;47.53;100121.81;1849356;76;21176;-71
2021/08/19 06:31:00;;;;;;;13.10;10.85;;;;;;;30.46;47.69;100121.09;1849161;77;20921;-71
2021/08/19 06:33:27;;;;;;;15.18;11.12;;;;;;;30.50;48.17;100121.73;1849387;77;21355;-72
2021/08/19 06:35:54;;;;;;;12.28;11.00;;;;;;;30.74;47.66;100121.19;1849000;77;20921;-72
2021/08/19 06:38:20;;;;;;;12.47;11.30;;;;;;;30.95;47.34;100118.97;1849551;76;20877;-70
2021/08/19 06:40:47;;;;;;;12.33;11.05;;;;;;;31.19;46.90;100114.28;1849084;77;21177;-70
2021/08/19 06:43:14;;;;;;;12.50;11.08;;;;;;;31.39;46.40;100117.41;1849427;77;20956;-72
2021/08/19 06:45:42;;;;;;;12.15;10.95;;;;;;;31.68;45.45;100113.88;1849062;77;20976;-70
2021/08/19 06:48:09;;;;;;;12.45;11.15;;;;;;;31.93;44.99;100112.98;1849416;77;20874;-70
2021/08/19 06:50:41;;;;;;;11.50;10.48;;;;;;;32.22;44.47;100118.35;1849190;77;20917;-70
2021/08/19 06:53:10;;;;;;;13.35;10.32;;;;;;;32.55;43.94;100116.16;1849425;76;21097;-71
2021/08/19 06:55:37;;;;;;;11.73;10.53;;;;;;;32.86;43.35;100113.02;1849199;76;20897;-70
2021/08/19 06:58:04;;;;;;;11.85;10.72;;;;;;;33.09;42.67;100110.09;1849796;77;21387;-71
2021/08/19 07:00:30;;;;;;;12.88;11.43;;;;;;;33.31;42.01;100110.07;1849382;77;21026;-70
2021/08/19 07:02:58;;;;;;;11.50;10.32;;;;;;;33.56;41.58;100109.50;1849243;76;21355;-72
2021/08/19 07:05:25;;;;;;;12.13;9.93;;;;;;;33.78;41.14;100099.14;1849353;77;21467;-70
2021/08/19 07:07:58;;;;;;;13.10;10.70;;;;;;;33.95;40.71;100097.11;1849287;77;20991;-71
2021/08/19 07:10:21;;;;;;;9.90;9.00;;;;;;;34.11;40.62;100090.45;1848612;77;20937;-71
2021/08/19 07:12:48;;;;;;;15.70;11.40;;;;;;;34.22;40.18;100090.26;1849340;77;21374;-71
2021/08/19 07:15:15;;;;;;;16.02;12.85;;;;;;;34.31;40.13;100081.58;1849630;77;20960;-72
2021/08/19 07:17:41;;;;;;;20.50;13.50;;;;;;;34.41;39.63;100088.45;1849327;77;21095;-72
2021/08/19 07:20:10;;;;;;;24.18;15.30;;;;;;;34.50;39.49;100088.78;1849178;77;21380;-71
2021/08/19 07:22:36;;;;;;;15.80;11.08;;;;;;;34.64;39.12;100085.88;1849165;77;20846;-70
2021/08/19 07:25:05;;;;;;;16.02;12.65;;;;;;;34.81;38.82;100080.24;1849034;76;20912;-71
2021/08/19 07:27:32;;;;;;;12.10;10.90;;;;;;;35.03;38.44;100093.13;1849343;77;20964;-71
2021/08/19 07:29:59;;;;;;;15.03;10.48;;;;;;;35.21;38.22;100083.67;1849149;76;21118;-71
2021/08/19 07:32:26;;;;;;;14.90;10.60;;;;;;;35.29;38.16;100087.24;1848941;77;20897;-71
2021/08/19 07:34:54;;;;;;;11.55;10.25;;;;;;;35.26;37.48;100089.16;1849197;77;20877;-70
2021/08/19 07:37:21;;;;;;;13.38;12.03;;;;;;;35.14;37.50;100080.39;1849144;77;21082;-70
2021/08/19 07:39:48;;;;;;;17.82;12.58;;;;;;;35.22;37.70;100084.52;1849508;77;20874;-70
2021/08/19 07:42:15;;;;;;;13.25;11.40;;;;;;;35.44;37.47;100082.38;1849233;77;21886;-69
2021/08/19 07:44:42;;;;;;;12.10;10.15;;;;;;;35.63;37.19;100079.14;1849085;77;21362;-70
2021/08/19 07:47:09;;;;;;;16.17;9.80;;;;;;;35.77;36.89;100074.77;1849321;77;20885;-69
2021/08/19 07:49:35;;;;;;;13.53;10.90;;;;;;;35.93;36.74;100074.77;1849406;76;21405;-71
2021/08/19 07:52:03;;;;;;;13.80;10.63;;;;;;;36.08;36.55;100076.92;1849013;77;20964;-70
2021/08/19 07:54:30;;;;;;;13.48;11.97;;;;;;;36.30;36.21;100077.20;1849162;77;21054;-70
2021/08/19 07:56:57;;;;;;;12.53;10.98;;;;;;;36.45;36.22;100074.43;1849511;77;20939;-71
2021/08/19 07:59:25;;;;;;;17.50;11.33;;;;;;;36.46;35.50;100071.14;1849193;76;20902;-70
2021/08/19 08:01:54;;;;;;;11.03;9.63;;;;;;;36.37;35.55;100064.06;1849135;76;21469;-71
2021/08/19 08:04:21;;;;;;;10.95;9.70;;;;;;;36.44;35.71;100068.70;1848871;77;20865;-71
2021/08/19 08:06:49;;;;;;;14.25;9.95;;;;;;;36.60;35.35;100062.67;1849204;77;21018;-71
2021/08/19 08:09:16;;;;;;;12.90;10.20;;;;;;;36.75;35.23;100074.07;1849088;77;20980;-71
2021/08/19 08:11:44;;;;;;;11.35;10.25;;;;;;;36.84;34.99;100067.47;1849247;77;21434;-70
2021/08/19 08:14:11;;;;;;;11.95;9.60;;;;;;;36.75;35.18;100069.97;1849624;77;20941;-68
2021/08/19 08:16:38;;;;;;;11.90;9.78;;;;;;;36.74;34.76;100062.88;1849236;77;20841;-68
2021/08/19 08:19:07;;;;;;;11.68;10.58;;;;;;;36.79;35.01;100062.04;1848924;77;21195;-70
2021/08/19 08:21:36;;;;;;;12.00;10.05;;;;;;;36.88;34.65;100061.72;1849215;77;20953;-68
2021/08/19 08:24:05;;;;;;;11.28;9.88;;;;;;;36.88;34.62;100061.16;1849193;77;20933;-69
2021/08/19 08:26:32;;;;;;;12.63;10.48;;;;;;;36.95;34.62;100056.75;1848590;77;20973;-70
2021/08/19 08:28:59;;;;;;;14.50;10.35;;;;;;;37.05;34.26;100052.61;1849469;77;20904;-69
2021/08/19 08:31:29;;;;;;;12.03;10.90;;;;;;;37.07;33.93;100053.15;1849281;76;21044;-68
2021/08/19 08:33:56;;;;;;;12.47;10.13;;;;;;;37.06;34.02;100054.23;1849401;77;20890;-69
2021/08/19 08:36:24;;;;;;;11.33;10.23;;;;;;;37.05;34.10;100052.61;1849129;77;20999;-69
2021/08/19 08:38:52;;;;;;;13.10;10.00;;;;;;;37.16;33.89;100057.50;1849421;77;21358;-68
2021/08/19 08:41:19;;;;;;;13.72;9.50;;;;;;;37.35;33.88;100056.27;1849293;77;20905;-68
2021/08/19 08:43:47;;;;;;;11.22;10.10;;;;;;;37.53;33.74;100054.23;1849337;77;21510;-68
2021/08/19 08:46:17;;;;;;;10.55;9.30;;;;;;;37.61;33.54;100051.45;1849115;77;20924;-68
2021/08/19 08:48:44;;;;;;;14.87;9.93;;;;;;;37.63;33.23;100052.55;1849236;77;20956;-69
2021/08/19 08:51:11;;;;;;;16.05;10.32;;;;;;;37.64;33.04;100037.75;1849096;77;21086;-70
2021/08/19 08:53:41;;;;;;;11.48;9.93;;;;;;;37.71;32.96;100032.78;1849143;76;21389;-68
2021/08/19 08:56:09;;;;;;;12.05;10.82;;;;;;;37.77;33.27;100028.87;1849199;77;21410;-68
2021/08/19 08:58:37;;;;;;;14.73;9.90;;;;;;;37.68;32.99;100027.30;1849156;77;21395;-70
2021/08/19 09:01:04;;;;;;;12.90;9.73;;;;;;;37.58;33.08;100034.25;1849102;77;20917;-69
2021/08/19 09:03:31;;;;;;;11.68;10.10;;;;;;;37.47;33.10;100031.30;1849179;76;20889;-69
2021/08/19 09:05:58;;;;;;;13.00;9.85;;;;;;;37.30;33.52;100023.48;1852007;77;21405;-69
2021/08/19 09:08:26;;;;;;;9.48;8.68;;;;;;;37.34;33.41;100028.10;1859684;77;21149;-69
2021/08/19 09:10:56;;;;;;;11.55;10.32;;;;;;;37.34;33.72;100029.47;1859884;77;20962;-70
2021/08/19 09:13:27;;;;;;;12.45;10.00;;;;;;;37.49;33.76;100029.10;1861006;77;20915;-68
2021/08/19 09:15:57;;;;;;;11.33;10.08;;;;;;;37.69;33.40;100028.95;1860482;77;20942;-68
2021/08/19 09:18:36;;;;;;;13.98;10.05;;;;;;;37.84;33.04;100021.69;1856685;77;21325;-69
2021/08/19 09:21:18;;;;;;;13.50;9.43;;;;;;;37.98;33.00;100021.85;1860347;77;21169;-71
2021/08/19 09:23:45;;;;;;;12.03;9.07;;;;;;;37.98;32.80;100013.64;1855009;77;20911;-71
2021/08/19 09:26:16;;;;;;;11.83;10.23;;;;;;;38.00;32.82;100017.71;1859997;77;20982;-69
2021/08/19 09:28:43;;;;;;;11.43;9.88;;;;;;;37.98;32.67;100018.55;1856001;76;20926;-70
2021/08/19 09:31:11;;;;;;;12.80;10.38;;;;;;;38.02;32.93;100022.91;1860520;77;21361;-69
2021/08/19 09:33:41;;;;;;;11.75;10.03;;;;;;;38.02;32.86;100019.64;1859950;77;21168;-71
2021/08/19 09:36:08;;;;;;;12.05;10.35;;;;;;;37.98;33.02;100019.92;1860219;77;20879;-71
2021/08/19 09:38:42;;;;;;;10.65;9.70;;;;;;;37.94;33.20;100016.13;1859938;77;21451;-70
2021/08/19 09:41:13;;;;;;;;;;;;;;;38.04;32.99;100017.96;1863002;77;20955;-69
2021/08/19 09:43:46;;;;;;;11.38;9.38;;;;;;;38.05;32.85;100017.68;1859966;76;20079;-70
2021/08/19 09:46:16;;;;;;;10.90;9.75;;;;;;;37.98;32.87;100016.37;1860146;77;21124;-69
2021/08/19 09:48:44;;;;;;;13.93;9.80;;;;;;;38.03;33.05;100014.97;1859957;77;20958;-71
2021/08/19 09:51:20;;;;;;;10.72;9.63;;;;;;;38.18;32.73;100016.18;1860118;77;20876;-71
2021/08/19 09:53:53;;;;;;;14.20;10.50;;;;;;;38.22;32.70;100014.49;1859843;77;20872;-71
2021/08/19 09:56:33;;;;;;;11.95;9.33;;;;;;;38.14;32.49;100011.83;1860307;77;20900;-69
2021/08/19 09:59:20;;;;;;;12.50;9.75;;;;;;;38.28;32.48;100011.94;1860030;76;21111;-70
2021/08/19 10:01:51;;;;;;;13.53;9.90;;;;;;;38.32;32.46;100008.06;1859768;77;20894;-71
2021/08/19 10:04:18;;;;;;;13.60;9.93;;;;;;;38.35;32.18;100010.21;1860171;77;20902;-69
2021/08/19 10:06:45;;;;;;;11.05;10.03;;;;;;;38.34;32.23;100012.70;1860172;76;20942;-71
2021/08/19 10:09:13;;;;;;;12.80;9.08;;;;;;;38.17;32.17;100016.46;1859883;77;20954;-72
2021/08/19 10:11:45;;;;;;;11.68;10.58;;;;;;;38.00;32.33;100010.87;1859979;76;21092;-71
2021/08/19 10:14:24;;;;;;;13.35;10.20;;;;;;;37.94;32.29;100007.35;1859668;77;20867;-71
2021/08/19 10:16:51;;;;;;;12.25;9.98;;;;;;;37.98;32.53;100006.80;1860424;77;21235;-71
2021/08/19 10:19:36;;;;;;;15.40;10.48;;;;;;;38.05;32.42;100006.73;1859792;76;20888;-71
2021/08/19 10:22:16;;;;;;;10.98;9.90;;;;;;;38.12;32.21;100008.56;1859951;77;21488;-71
2021/08/19 10:24:51;;;;;;;14.43;10.78;;;;;;;38.02;32.31;100005.11;1860193;76;20907;-71
2021/08/19 10:27:29;;;;;;;12.00;10.75;;;;;;;37.97;32.42;100008.69;1860299;77;21391;-70
2021/08/19 10:30:06;;;;;;;14.70;10.35;;;;;;;37.86;32.58;100009.34;1860038;77;20864;-72
2021/08/19 10:32:43;;;;;;;14.15;10.20;;;;;;;37.75;32.94;100003.70;1859725;77;20955;-71
2021/08/19 10:35:12;;;;;;;9.93;9.03;;;;;;;37.73;32.86;100004.55;1859975;77;21384;-69
2021/08/19 10:38:00;;;;;;;14.07;9.70;;;;;;;37.81;33.08;100005.85;1860100;76;21357;-70
2021/08/19 10:40:33;;;;;;;11.45;9.53;;;;;;;37.92;32.62;100005.45;1859673;77;20971;-71
2021/08/19 10:43:20;;;;;;;12.28;10.50;;;;;;;38.17;32.12;100004.14;1859750;77;21317;-72
2021/08/19 10:45:47;;;;;;;11.68;10.50;;;;;;;38.32;31.81;100005.33;1860158;76;21313;-70
2021/08/19 10:48:21;;;;;;;15.10;10.68;;;;;;;38.32;31.16;100003.40;1860056;77;20904;-70
2021/08/19 10:50:49;;;;;;;11.55;10.35;;;;;;;38.27;31.67;100007.58;1860160;77;21140;-70
2021/08/19 10:53:22;;;;;;;12.63;11.03;;;;;;;38.09;31.55;100005.05;1860107;77;20871;-71
2021/08/19 10:55:53;;;;;;;13.00;11.50;;;;;;;37.77;31.78;100000.69;1859989;76;20840;-70
2021/08/19 10:58:28;;;;;;;15.83;11.15;;;;;;;37.39;32.00;99997.72;1860239;77;20879;-70
2021/08/19 11:01:00;;;;;;;12.33;11.05;;;;;;;36.90;32.68;99997.47;1860100;76;20950;-70
2021/08/19 11:03:41;;;;;;;12.90;11.22;;;;;;;36.52;33.43;99994.36;1860553;77;21080;-71
2021/08/19 11:06:16;;;;;;;14.35;11.78;;;;;;;36.28;34.09;99995.54;1859792;76;20914;-70
2021/08/19 11:08:57;;;;;;;15.93;11.05;;;;;;;36.16;34.68;99992.32;1860020;77;21071;-70
2021/08/19 11:11:37;;;;;;;12.43;11.12;;;;;;;36.17;34.58;99989.84;1859922;77;21052;-70
2021/08/19 11:14:20;;;;;;;18.20;11.55;;;;;;;36.17;34.06;99989.03;1860025;77;20895;-71
2021/08/19 11:16:55;;;;;;;12.55;10.10;;;;;;;36.27;34.16;99989.02;1860016;77;21863;-70
2021/08/19 11:19:29;;;;;;;16.95;12.07;;;;;;;36.42;34.18;99979.40;1859988;77;20962;-69
2021/08/19 11:22:03;;;;;;;19.85;11.75;;;;;;;36.42;33.88;99980.77;1860236;77;20885;-67